sensor_id;sensor_type;location;lat;lon;timestamp;pressure;altitude;pressure_sealevel;temperature;humidity
57900;BME280;60605;53.716;19.940;2022-12-10T00:04:49;99710.77;;;-0.33;100.00
57900;BME280;60605;53.716;19.940;2022-12-10T00:09:52;99708.23;;;-0.35;100.00
57900;BME280;60605;53.716;19.940;2022-12-10T00:14:55;99713.55;;;-0.36;100.00
57900;BME280;60605;53.716;19.940;2022-12-10T00:19:59;99718.51;;;-0.39;100.00
57900;BME280;60605;53.716;19.940;2022-12-10T00:25:03;99726.21;;;-0.42;100.00
57900;BME280;60605;53.716;19.940;2022-12-10T00:30:07;99724.68;;;-0.45;100.00
57900;BME280;60605;53.716;19.940;2022-12-10T00:35:11;99727.08;;;-0.47;100.00
57900;BME280;60605;53.716;19.940;2022-12-10T00:40:15;99728.44;;;-0.49;100.00
57900;BME280;60605;53.716;19.940;2022-12-10T00:45:18;99721.45;;;-0.52;100.00
57900;BME280;60605;53.716;19.940;2022-12-10T00:50:22;99724.00;;;-0.56;100.00
57900;BME280;60605;53.716;19.940;2022-12-10T00:55:25;99726.84;;;-0.60;100.00
57900;BME280;60605;53.716;19.940;2022-12-10T01:00:28;99736.55;;;-0.61;100.00
57900;BME280;60605;53.716;19.940;2022-12-10T01:05:31;99739.88;;;-0.61;100.00
57900;BME280;60605;53.716;19.940;2022-12-10T01:10:34;99737.79;;;-0.61;100.00
57900;BME280;60605;53.716;19.940;2022-12-10T01:15:38;99741.91;;;-0.62;100.00
57900;BME280;60605;53.716;19.940;2022-12-10T01:20:42;99745.41;;;-0.62;100.00
57900;BME280;60605;53.716;19.940;2022-12-10T01:25:46;99741.48;;;-0.61;100.00
57900;BME280;60605;53.716;19.940;2022-12-10T01:30:49;99740.55;;;-0.60;100.00
57900;BME280;60605;53.716;19.940;2022-12-10T01:35:52;99739.96;;;-0.59;100.00
57900;BME280;60605;53.716;19.940;2022-12-10T01:40:55;99738.05;;;-0.59;100.00
57900;BME280;60605;53.716;19.940;2022-12-10T01:45:58;99735.89;;;-0.58;100.00
57900;BME280;60605;53.716;19.940;2022-12-10T01:51:02;99733.05;;;-0.57;100.00
57900;BME280;60605;53.716;19.940;2022-12-10T01:56:06;99725.73;;;-0.56;100.00
57900;BME280;60605;53.716;19.940;2022-12-10T02:06:53;99711.95;;;-0.54;100.00
57900;BME280;60605;53.716;19.940;2022-12-10T02:12:13;99711.17;;;-0.53;100.00
57900;BME280;60605;53.716;19.940;2022-12-10T02:17:29;99708.80;;;-0.52;100.00
57900;BME280;60605;53.716;19.940;2022-12-10T02:22:44;99709.98;;;-0.51;100.00
57900;BME280;60605;53.716;19.940;2022-12-10T02:33:19;99694.99;;;-0.50;100.00
57900;BME280;60605;53.716;19.940;2022-12-10T02:38:27;99687.65;;;-0.50;100.00
57900;BME280;60605;53.716;19.940;2022-12-10T02:43:32;99686.16;;;-0.51;100.00
57900;BME280;60605;53.716;19.940;2022-12-10T02:48:37;99693.06;;;-0.52;100.00
57900;BME280;60605;53.716;19.940;2022-12-10T02:53:43;99700.36;;;-0.52;100.00
57900;BME280;60605;53.716;19.940;2022-12-10T03:04:04;99701.17;;;-0.50;100.00
57900;BME280;60605;53.716;19.940;2022-12-10T03:09:21;99690.43;;;-0.52;100.00
57900;BME280;60605;53.716;19.940;2022-12-10T03:14:29;99699.27;;;-0.53;100.00
57900;BME280;60605;53.716;19.940;2022-12-10T03:19:40;99698.15;;;-0.53;100.00
57900;BME280;60605;53.716;19.940;2022-12-10T03:24:44;99699.59;;;-0.53;100.00
57900;BME280;60605;53.716;19.940;2022-12-10T03:29:53;99697.52;;;-0.53;100.00
57900;BME280;60605;53.716;19.940;2022-12-10T03:34:58;99694.17;;;-0.53;100.00
57900;BME280;60605;53.716;19.940;2022-12-10T03:40:04;99691.94;;;-0.54;100.00
57900;BME280;60605;53.716;19.940;2022-12-10T03:45:09;99696.09;;;-0.56;100.00
57900;BME280;60605;53.716;19.940;2022-12-10T03:50:12;99696.74;;;-0.55;100.00
57900;BME280;60605;53.716;19.940;2022-12-10T03:55:16;99701.72;;;-0.56;100.00
57900;BME280;60605;53.716;19.940;2022-12-10T04:00:20;99703.23;;;-0.58;100.00
57900;BME280;60605;53.716;19.940;2022-12-10T04:05:23;99698.73;;;-0.59;100.00
57900;BME280;60605;53.716;19.940;2022-12-10T04:10:26;99703.30;;;-0.59;100.00
57900;BME280;60605;53.716;19.940;2022-12-10T04:15:29;99702.30;;;-0.60;100.00
57900;BME280;60605;53.716;19.940;2022-12-10T04:21:02;99699.28;;;-0.62;100.00
57900;BME280;60605;53.716;19.940;2022-12-10T04:26:24;99703.89;;;-0.63;100.00
57900;BME280;60605;53.716;19.940;2022-12-10T04:31:47;99705.15;;;-0.63;100.00
57900;BME280;60605;53.716;19.940;2022-12-10T04:36:51;99708.19;;;-0.64;100.00
57900;BME280;60605;53.716;19.940;2022-12-10T04:41:54;99707.14;;;-0.64;100.00
57900;BME280;60605;53.716;19.940;2022-12-10T04:46:58;99709.08;;;-0.64;100.00
57900;BME280;60605;53.716;19.940;2022-12-10T04:52:02;99709.67;;;-0.63;100.00
57900;BME280;60605;53.716;19.940;2022-12-10T04:57:07;99707.61;;;-0.61;100.00
57900;BME280;60605;53.716;19.940;2022-12-10T05:02:10;99700.33;;;-0.62;100.00
57900;BME280;60605;53.716;19.940;2022-12-10T05:07:13;99700.82;;;-0.61;100.00
57900;BME280;60605;53.716;19.940;2022-12-10T05:12:17;99702.06;;;-0.61;100.00
57900;BME280;60605;53.716;19.940;2022-12-10T05:17:20;99709.58;;;-0.61;100.00
57900;BME280;60605;53.716;19.940;2022-12-10T05:22:24;99711.17;;;-0.61;100.00
57900;BME280;60605;53.716;19.940;2022-12-10T05:27:46;99715.25;;;-0.62;100.00
57900;BME280;60605;53.716;19.940;2022-12-10T05:32:50;99720.55;;;-0.63;100.00
57900;BME280;60605;53.716;19.940;2022-12-10T05:37:53;99722.44;;;-0.62;100.00
57900;BME280;60605;53.716;19.940;2022-12-10T05:42:56;99722.76;;;-0.61;100.00
57900;BME280;60605;53.716;19.940;2022-12-10T05:47:59;99723.63;;;-0.61;100.00
57900;BME280;60605;53.716;19.940;2022-12-10T05:53:04;99723.25;;;-0.61;100.00
57900;BME280;60605;53.716;19.940;2022-12-10T05:58:07;99724.56;;;-0.59;100.00
57900;BME280;60605;53.716;19.940;2022-12-10T06:03:11;99721.37;;;-0.59;100.00
57900;BME280;60605;53.716;19.940;2022-12-10T06:08:14;99724.16;;;-0.59;100.00
57900;BME280;60605;53.716;19.940;2022-12-10T06:13:17;99729.58;;;-0.58;100.00
57900;BME280;60605;53.716;19.940;2022-12-10T06:18:21;99732.46;;;-0.60;100.00
57900;BME280;60605;53.716;19.940;2022-12-10T06:23:24;99731.90;;;-0.59;100.00
57900;BME280;60605;53.716;19.940;2022-12-10T06:28:27;99735.85;;;-0.58;100.00
57900;BME280;60605;53.716;19.940;2022-12-10T06:33:31;99740.19;;;-0.57;100.00
57900;BME280;60605;53.716;19.940;2022-12-10T06:38:35;99739.54;;;-0.58;100.00
57900;BME280;60605;53.716;19.940;2022-12-10T06:43:38;99736.73;;;-0.58;100.00
57900;BME280;60605;53.716;19.940;2022-12-10T06:48:41;99738.42;;;-0.57;100.00
57900;BME280;60605;53.716;19.940;2022-12-10T06:53:45;99735.07;;;-0.57;100.00
57900;BME280;60605;53.716;19.940;2022-12-10T06:58:49;99743.52;;;-0.57;100.00
57900;BME280;60605;53.716;19.940;2022-12-10T07:03:52;99749.00;;;-0.58;100.00
57900;BME280;60605;53.716;19.940;2022-12-10T07:08:56;99756.09;;;-0.56;100.00
57900;BME280;60605;53.716;19.940;2022-12-10T07:14:00;99752.27;;;-0.54;100.00
57900;BME280;60605;53.716;19.940;2022-12-10T07:19:03;99751.08;;;-0.52;100.00
57900;BME280;60605;53.716;19.940;2022-12-10T07:24:09;99753.59;;;-0.50;100.00
57900;BME280;60605;53.716;19.940;2022-12-10T07:29:15;99754.86;;;-0.48;100.00
57900;BME280;60605;53.716;19.940;2022-12-10T07:34:19;99752.30;;;-0.46;100.00
57900;BME280;60605;53.716;19.940;2022-12-10T07:39:23;99751.75;;;-0.43;100.00
57900;BME280;60605;53.716;19.940;2022-12-10T07:44:26;99752.80;;;-0.40;100.00
57900;BME280;60605;53.716;19.940;2022-12-10T07:49:30;99750.05;;;-0.39;100.00
57900;BME280;60605;53.716;19.940;2022-12-10T07:54:34;99754.38;;;-0.37;100.00
57900;BME280;60605;53.716;19.940;2022-12-10T07:59:37;99754.91;;;-0.38;100.00
57900;BME280;60605;53.716;19.940;2022-12-10T08:04:40;99754.03;;;-0.38;100.00
57900;BME280;60605;53.716;19.940;2022-12-10T08:09:44;99753.81;;;-0.34;100.00
57900;BME280;60605;53.716;19.940;2022-12-10T08:14:47;99756.43;;;-0.31;100.00
57900;BME280;60605;53.716;19.940;2022-12-10T08:19:50;99760.76;;;-0.28;100.00
57900;BME280;60605;53.716;19.940;2022-12-10T08:24:55;99760.64;;;-0.26;100.00
57900;BME280;60605;53.716;19.940;2022-12-10T08:30:00;99766.80;;;-0.29;100.00
57900;BME280;60605;53.716;19.940;2022-12-10T08:35:06;99777.27;;;-0.31;100.00
57900;BME280;60605;53.716;19.940;2022-12-10T08:40:12;99774.82;;;-0.31;100.00
57900;BME280;60605;53.716;19.940;2022-12-10T08:45:18;99776.66;;;-0.27;100.00
57900;BME280;60605;53.716;19.940;2022-12-10T08:50:22;99774.64;;;-0.23;100.00
57900;BME280;60605;53.716;19.940;2022-12-10T08:55:27;99772.38;;;-0.20;100.00
57900;BME280;60605;53.716;19.940;2022-12-10T09:00:33;99768.42;;;-0.19;100.00
57900;BME280;60605;53.716;19.940;2022-12-10T09:05:39;99769.02;;;-0.20;100.00
57900;BME280;60605;53.716;19.940;2022-12-10T09:10:43;99766.05;;;-0.18;100.00
57900;BME280;60605;53.716;19.940;2022-12-10T09:15:52;99770.06;;;-0.15;100.00
57900;BME280;60605;53.716;19.940;2022-12-10T09:20:57;99771.23;;;-0.11;100.00
57900;BME280;60605;53.716;19.940;2022-12-10T09:26:06;99761.48;;;-0.06;100.00
57900;BME280;60605;53.716;19.940;2022-12-10T09:31:11;99757.24;;;-0.01;100.00
57900;BME280;60605;53.716;19.940;2022-12-10T09:36:23;99755.41;;;0.06;100.00
57900;BME280;60605;53.716;19.940;2022-12-10T09:46:56;99751.14;;;0.17;100.00
57900;BME280;60605;53.716;19.940;2022-12-10T09:52:05;99745.23;;;0.22;100.00
57900;BME280;60605;53.716;19.940;2022-12-10T09:57:18;99746.74;;;0.28;100.00
57900;BME280;60605;53.716;19.940;2022-12-10T10:02:24;99745.54;;;0.30;100.00
57900;BME280;60605;53.716;19.940;2022-12-10T10:07:31;99739.25;;;0.37;100.00
57900;BME280;60605;53.716;19.940;2022-12-10T10:12:39;99741.15;;;0.43;100.00
57900;BME280;60605;53.716;19.940;2022-12-10T10:17:44;99740.88;;;0.42;100.00
57900;BME280;60605;53.716;19.940;2022-12-10T10:22:52;99745.51;;;0.41;100.00
57900;BME280;60605;53.716;19.940;2022-12-10T10:27:58;99742.66;;;0.45;100.00
57900;BME280;60605;53.716;19.940;2022-12-10T10:33:09;99740.33;;;0.51;100.00
57900;BME280;60605;53.716;19.940;2022-12-10T10:38:20;99742.19;;;0.56;100.00
57900;BME280;60605;53.716;19.940;2022-12-10T10:43:59;99737.34;;;0.58;100.00
57900;BME280;60605;53.716;19.940;2022-12-10T10:49:26;99736.02;;;0.62;100.00
57900;BME280;60605;53.716;19.940;2022-12-10T10:54:39;99737.23;;;0.69;100.00
57900;BME280;60605;53.716;19.940;2022-12-10T10:59:44;99736.92;;;0.71;100.00
57900;BME280;60605;53.716;19.940;2022-12-10T11:04:52;99738.25;;;0.72;100.00
57900;BME280;60605;53.716;19.940;2022-12-10T11:09:57;99743.54;;;0.70;100.00
57900;BME280;60605;53.716;19.940;2022-12-10T11:20:33;99741.51;;;0.67;100.00
57900;BME280;60605;53.716;19.940;2022-12-10T11:37:34;99738.86;;;0.69;100.00
57900;BME280;60605;53.716;19.940;2022-12-10T11:42:49;99740.73;;;0.70;100.00
57900;BME280;60605;53.716;19.940;2022-12-10T11:54:13;99741.98;;;0.67;100.00
57900;BME280;60605;53.716;19.940;2022-12-10T11:59:27;99740.33;;;0.68;100.00
57900;BME280;60605;53.716;19.940;2022-12-10T12:16:03;99734.92;;;0.65;100.00
57900;BME280;60605;53.716;19.940;2022-12-10T12:21:13;99729.84;;;0.65;100.00
57900;BME280;60605;53.716;19.940;2022-12-10T12:26:35;99725.45;;;0.65;100.00
57900;BME280;60605;53.716;19.940;2022-12-10T12:31:46;99718.40;;;0.65;100.00
57900;BME280;60605;53.716;19.940;2022-12-10T12:36:52;99715.29;;;0.64;100.00
57900;BME280;60605;53.716;19.940;2022-12-10T12:42:22;99712.51;;;0.61;100.00
57900;BME280;60605;53.716;19.940;2022-12-10T12:52:40;99716.98;;;0.57;100.00
57900;BME280;60605;53.716;19.940;2022-12-10T12:57:56;99726.56;;;0.51;100.00
57900;BME280;60605;53.716;19.940;2022-12-10T13:03:29;99727.59;;;0.47;100.00
57900;BME280;60605;53.716;19.940;2022-12-10T13:08:52;99728.34;;;0.40;100.00
57900;BME280;60605;53.716;19.940;2022-12-10T13:19:32;99740.73;;;0.34;100.00
57900;BME280;60605;53.716;19.940;2022-12-10T13:40:24;99761.88;;;0.17;100.00
57900;BME280;60605;53.716;19.940;2022-12-10T13:45:32;99766.52;;;0.13;100.00
57900;BME280;60605;53.716;19.940;2022-12-10T13:56:29;99775.94;;;0.09;100.00
57900;BME280;60605;53.716;19.940;2022-12-10T14:01:42;99777.03;;;0.06;100.00
57900;BME280;60605;53.716;19.940;2022-12-10T14:06:51;99780.00;;;-0.03;100.00
57900;BME280;60605;53.716;19.940;2022-12-10T14:12:00;99775.91;;;-0.10;100.00
57900;BME280;60605;53.716;19.940;2022-12-10T14:17:09;99769.80;;;-0.19;100.00
57900;BME280;60605;53.716;19.940;2022-12-10T14:22:22;99767.93;;;-0.22;100.00
57900;BME280;60605;53.716;19.940;2022-12-10T14:27:28;99770.73;;;-0.25;100.00
57900;BME280;60605;53.716;19.940;2022-12-10T14:32:36;99771.14;;;-0.28;100.00
57900;BME280;60605;53.716;19.940;2022-12-10T14:37:43;99772.75;;;-0.32;100.00
57900;BME280;60605;53.716;19.940;2022-12-10T14:42:47;99772.75;;;-0.34;100.00
57900;BME280;60605;53.716;19.940;2022-12-10T14:47:50;99773.35;;;-0.35;100.00
57900;BME280;60605;53.716;19.940;2022-12-10T14:52:54;99768.16;;;-0.37;100.00
57900;BME280;60605;53.716;19.940;2022-12-10T14:58:01;99765.16;;;-0.39;100.00
57900;BME280;60605;53.716;19.940;2022-12-10T15:03:10;99771.22;;;-0.43;100.00
57900;BME280;60605;53.716;19.940;2022-12-10T15:08:15;99779.34;;;-0.47;100.00
57900;BME280;60605;53.716;19.940;2022-12-10T15:18:37;99786.42;;;-0.56;100.00
57900;BME280;60605;53.716;19.940;2022-12-10T15:23:41;99790.44;;;-0.59;100.00
57900;BME280;60605;53.716;19.940;2022-12-10T15:28:47;99795.12;;;-0.60;100.00
57900;BME280;60605;53.716;19.940;2022-12-10T15:33:56;99792.02;;;-0.61;100.00
57900;BME280;60605;53.716;19.940;2022-12-10T15:49:30;99787.59;;;-0.66;100.00
57900;BME280;60605;53.716;19.940;2022-12-10T15:54:36;99780.38;;;-0.69;100.00
57900;BME280;60605;53.716;19.940;2022-12-10T15:59:45;99780.93;;;-0.72;100.00
57900;BME280;60605;53.716;19.940;2022-12-10T16:04:49;99786.17;;;-0.74;100.00
57900;BME280;60605;53.716;19.940;2022-12-10T16:09:53;99792.50;;;-0.83;100.00
57900;BME280;60605;53.716;19.940;2022-12-10T16:14:56;99795.70;;;-0.90;100.00
57900;BME280;60605;53.716;19.940;2022-12-10T16:20:25;99792.31;;;-0.94;100.00
57900;BME280;60605;53.716;19.940;2022-12-10T16:25:30;99787.54;;;-0.99;100.00
57900;BME280;60605;53.716;19.940;2022-12-10T16:30:52;99781.21;;;-1.05;100.00
57900;BME280;60605;53.716;19.940;2022-12-10T16:35:56;99777.23;;;-1.08;100.00
57900;BME280;60605;53.716;19.940;2022-12-10T16:41:31;99780.73;;;-1.06;100.00
57900;BME280;60605;53.716;19.940;2022-12-10T16:46:36;99781.56;;;-1.05;100.00
57900;BME280;60605;53.716;19.940;2022-12-10T16:51:40;99781.21;;;-1.05;100.00
57900;BME280;60605;53.716;19.940;2022-12-10T16:56:46;99776.53;;;-1.08;100.00
57900;BME280;60605;53.716;19.940;2022-12-10T17:01:49;99774.39;;;-1.13;100.00
57900;BME280;60605;53.716;19.940;2022-12-10T17:06:52;99776.52;;;-1.17;100.00
57900;BME280;60605;53.716;19.940;2022-12-10T17:11:56;99775.45;;;-1.17;100.00
57900;BME280;60605;53.716;19.940;2022-12-10T17:17:00;99776.48;;;-1.16;100.00
57900;BME280;60605;53.716;19.940;2022-12-10T17:22:06;99785.86;;;-1.15;100.00
57900;BME280;60605;53.716;19.940;2022-12-10T17:27:14;99795.73;;;-1.13;100.00
57900;BME280;60605;53.716;19.940;2022-12-10T17:32:20;99800.88;;;-1.14;100.00
57900;BME280;60605;53.716;19.940;2022-12-10T17:37:25;99808.76;;;-1.14;100.00
57900;BME280;60605;53.716;19.940;2022-12-10T17:42:31;99808.74;;;-1.14;100.00
57900;BME280;60605;53.716;19.940;2022-12-10T17:47:35;99804.83;;;-1.13;100.00
57900;BME280;60605;53.716;19.940;2022-12-10T17:52:38;99807.22;;;-1.12;100.00
57900;BME280;60605;53.716;19.940;2022-12-10T17:57:41;99812.12;;;-1.12;100.00
57900;BME280;60605;53.716;19.940;2022-12-10T18:02:45;99813.88;;;-1.12;100.00
57900;BME280;60605;53.716;19.940;2022-12-10T18:07:48;99822.59;;;-1.11;100.00
57900;BME280;60605;53.716;19.940;2022-12-10T18:12:52;99828.84;;;-1.10;100.00
57900;BME280;60605;53.716;19.940;2022-12-10T18:17:59;99825.67;;;-1.07;100.00
57900;BME280;60605;53.716;19.940;2022-12-10T18:23:04;99824.08;;;-1.04;100.00
57900;BME280;60605;53.716;19.940;2022-12-10T18:33:45;99818.64;;;-1.04;100.00
57900;BME280;60605;53.716;19.940;2022-12-10T18:38:50;99812.02;;;-1.04;100.00
57900;BME280;60605;53.716;19.940;2022-12-10T18:43:54;99810.73;;;-1.06;100.00
57900;BME280;60605;53.716;19.940;2022-12-10T18:48:58;99808.00;;;-1.10;100.00
57900;BME280;60605;53.716;19.940;2022-12-10T18:54:01;99815.15;;;-1.13;100.00
57900;BME280;60605;53.716;19.940;2022-12-10T18:59:05;99826.20;;;-1.13;100.00
57900;BME280;60605;53.716;19.940;2022-12-10T19:04:09;99831.03;;;-1.14;100.00
57900;BME280;60605;53.716;19.940;2022-12-10T19:09:16;99827.77;;;-1.16;100.00
57900;BME280;60605;53.716;19.940;2022-12-10T19:14:21;99819.14;;;-1.15;100.00
57900;BME280;60605;53.716;19.940;2022-12-10T19:19:26;99820.55;;;-1.18;100.00
57900;BME280;60605;53.716;19.940;2022-12-10T19:24:29;99829.30;;;-1.21;100.00
57900;BME280;60605;53.716;19.940;2022-12-10T19:29:33;99833.40;;;-1.22;100.00
57900;BME280;60605;53.716;19.940;2022-12-10T19:34:36;99830.07;;;-1.22;100.00
57900;BME280;60605;53.716;19.940;2022-12-10T19:39:40;99828.98;;;-1.22;100.00
57900;BME280;60605;53.716;19.940;2022-12-10T19:44:44;99826.30;;;-1.20;100.00
57900;BME280;60605;53.716;19.940;2022-12-10T19:49:49;99827.23;;;-1.18;100.00
57900;BME280;60605;53.716;19.940;2022-12-10T19:54:52;99830.97;;;-1.16;100.00
57900;BME280;60605;53.716;19.940;2022-12-10T19:59:56;99831.06;;;-1.18;100.00
57900;BME280;60605;53.716;19.940;2022-12-10T20:05:00;99830.72;;;-1.18;100.00
57900;BME280;60605;53.716;19.940;2022-12-10T20:10:03;99833.91;;;-1.19;100.00
57900;BME280;60605;53.716;19.940;2022-12-10T20:15:08;99830.17;;;-1.21;100.00
57900;BME280;60605;53.716;19.940;2022-12-10T20:20:26;99822.35;;;-1.22;100.00
57900;BME280;60605;53.716;19.940;2022-12-10T20:25:29;99812.56;;;-1.22;100.00
57900;BME280;60605;53.716;19.940;2022-12-10T20:30:34;99813.57;;;-1.21;100.00
57900;BME280;60605;53.716;19.940;2022-12-10T20:35:40;99811.54;;;-1.23;100.00
57900;BME280;60605;53.716;19.940;2022-12-10T20:40:44;99812.45;;;-1.26;100.00
57900;BME280;60605;53.716;19.940;2022-12-10T20:45:48;99801.16;;;-1.31;100.00
57900;BME280;60605;53.716;19.940;2022-12-10T20:50:51;99800.63;;;-1.33;100.00
57900;BME280;60605;53.716;19.940;2022-12-10T20:55:55;99803.11;;;-1.34;100.00
57900;BME280;60605;53.716;19.940;2022-12-10T21:01:01;99805.86;;;-1.36;100.00
57900;BME280;60605;53.716;19.940;2022-12-10T21:06:06;99803.83;;;-1.40;100.00
57900;BME280;60605;53.716;19.940;2022-12-10T21:11:12;99800.98;;;-1.45;100.00
57900;BME280;60605;53.716;19.940;2022-12-10T21:16:19;99793.23;;;-1.47;100.00
57900;BME280;60605;53.716;19.940;2022-12-10T21:21:23;99791.36;;;-1.48;100.00
57900;BME280;60605;53.716;19.940;2022-12-10T21:26:29;99779.02;;;-1.50;100.00
57900;BME280;60605;53.716;19.940;2022-12-10T21:31:39;99780.92;;;-1.52;100.00
57900;BME280;60605;53.716;19.940;2022-12-10T21:36:43;99781.05;;;-1.54;100.00
57900;BME280;60605;53.716;19.940;2022-12-10T21:41:46;99788.63;;;-1.55;100.00
57900;BME280;60605;53.716;19.940;2022-12-10T21:47:08;99787.52;;;-1.54;100.00
57900;BME280;60605;53.716;19.940;2022-12-10T21:52:15;99785.52;;;-1.53;100.00
57900;BME280;60605;53.716;19.940;2022-12-10T21:57:19;99782.39;;;-1.54;100.00
57900;BME280;60605;53.716;19.940;2022-12-10T22:02:22;99783.35;;;-1.58;100.00
57900;BME280;60605;53.716;19.940;2022-12-10T22:07:25;99783.88;;;-1.64;100.00
57900;BME280;60605;53.716;19.940;2022-12-10T22:12:30;99783.46;;;-1.69;100.00
57900;BME280;60605;53.716;19.940;2022-12-10T22:17:33;99777.74;;;-1.70;100.00
57900;BME280;60605;53.716;19.940;2022-12-10T22:22:37;99778.23;;;-1.72;100.00
57900;BME280;60605;53.716;19.940;2022-12-10T22:27:40;99782.73;;;-1.74;100.00
57900;BME280;60605;53.716;19.940;2022-12-10T22:32:45;99783.73;;;-1.76;100.00
57900;BME280;60605;53.716;19.940;2022-12-10T22:37:51;99782.35;;;-1.80;100.00
57900;BME280;60605;53.716;19.940;2022-12-10T22:42:54;99776.07;;;-1.83;100.00
57900;BME280;60605;53.716;19.940;2022-12-10T22:48:18;99766.48;;;-1.87;100.00
57900;BME280;60605;53.716;19.940;2022-12-10T22:53:21;99765.96;;;-1.90;100.00
57900;BME280;60605;53.716;19.940;2022-12-10T22:58:25;99773.51;;;-1.94;100.00
57900;BME280;60605;53.716;19.940;2022-12-10T23:03:28;99774.96;;;-1.98;100.00
57900;BME280;60605;53.716;19.940;2022-12-10T23:08:32;99779.85;;;-2.04;100.00
57900;BME280;60605;53.716;19.940;2022-12-10T23:13:36;99781.57;;;-2.12;100.00
57900;BME280;60605;53.716;19.940;2022-12-10T23:18:41;99788.29;;;-2.17;100.00
57900;BME280;60605;53.716;19.940;2022-12-10T23:23:44;99783.29;;;-2.21;100.00
57900;BME280;60605;53.716;19.940;2022-12-10T23:28:48;99782.04;;;-2.24;100.00
57900;BME280;60605;53.716;19.940;2022-12-10T23:33:52;99780.20;;;-2.22;100.00
57900;BME280;60605;53.716;19.940;2022-12-10T23:38:56;99779.39;;;-2.26;100.00
57900;BME280;60605;53.716;19.940;2022-12-10T23:43:59;99776.14;;;-2.30;100.00
57900;BME280;60605;53.716;19.940;2022-12-10T23:49:02;99772.44;;;-2.33;100.00
57900;BME280;60605;53.716;19.940;2022-12-10T23:54:06;99763.89;;;-2.37;100.00
57900;BME280;60605;53.716;19.940;2022-12-10T23:59:09;99754.84;;;-2.40;100.00
